This is the latest recevied weather packets stored in our database for station/object K4KMJ. If no packets are shown the sender has not sent any weather packets the latest 10 day(s).
| Time | Temp. | Humidity | Pressure | Rain* | Wind** | Luminosity | Snow |
|---|---|---|---|---|---|---|---|
| 1777412952 | 25.56° C | 76% | 1020.1 hPa | 0 mm | - | 294 W/m² | - |
| 1777412650 | 26.11° C | 76% | 1020.2 hPa | 0 mm | - | 101 W/m² | - |
| 1777412349 | 26.11° C | 76% | 1020.4 hPa | 0 mm | - | 356 W/m² | - |
| 1777412043 | 26.11° C | 76% | 1020.2 hPa | 0 mm | - | 376 W/m² | - |
| 1777411737 | 26.11° C | 75% | 1020.4 hPa | 0 mm | - | 400 W/m² | - |
| 1777411432 | 26.67° C | 75% | 1020.5 hPa | 0 mm | - | 374 W/m² | - |
| 1777411127 | 26.67° C | 76% | 1020.7 hPa | 0 mm | - | 336 W/m² | - |
| 1777410826 | 26.67° C | 76% | 1020.8 hPa | 0 mm | - | 298 W/m² | - |
| 1777410526 | 26.67° C | 76% | 1020.8 hPa | 0 mm | - | 182 W/m² | - |
| 1777410225 | 26.67° C | 75% | 1020.7 hPa | 0 mm | - | 154 W/m² | - |
| 1777409920 | 26.67° C | 74% | 1020.9 hPa | 0 mm | - | 336 W/m² | - |
| 1777409616 | 27.22° C | 73% | 1020.7 hPa | 0 mm | - | 166 W/m² | - |
| 1777409312 | 26.67° C | 73% | 1020.9 hPa | 0 mm | - | 422 W/m² | - |
| 1777409008 | 27.22° C | 72% | 1021.1 hPa | 0 mm | - | 404 W/m² | - |
| 1777408705 | 27.78° C | 71% | 1020.9 hPa | 0 mm | - | 462 W/m² | - |
| 1777408401 | 27.22° C | 71% | 1020.9 hPa | 0 mm | - | 414 W/m² | - |
| 1777408095 | 27.78° C | 71% | 1020.8 hPa | 0 mm | - | 409 W/m² | - |
| 1777407791 | 27.78° C | 71% | 1021.1 hPa | 0 mm | - | 432 W/m² | - |
| 1777407487 | 27.22° C | 72% | 1021.2 hPa | 0 mm | - | 467 W/m² | - |
| 1777407182 | 27.22° C | 72% | 1021 hPa | 0 mm | - | 543 W/m² | - |
| 1777406877 | 27.22° C | 73% | 1021 hPa | 0 mm | - | 549 W/m² | - |
| 1777406572 | 26.67° C | 72% | 1021.1 hPa | 0 mm | - | 439 W/m² | - |
| 1777406268 | 28.33° C | 71% | 1021.1 hPa | 0 mm | - | 174 W/m² | - |
| 1777405967 | 27.78° C | 71% | 1021.4 hPa | 0 mm | - | 257 W/m² | - |
| 1777405664 | 27.78° C | 71% | 1021.4 hPa | 0 mm | - | 154 W/m² | - |
* Rain latest hour (hover to see other rain measurements)
** Current wind speed in m/s (hover to see current wind gust speed)